KAMW/AMW METAR and TAF weather

Enter ICAO airport designator
Station Type Date Time Source
KAMW METAR 2019/02/23 17:06 UTC NOAA

KAMW 231706Z AUTO 07004KT 3SM BR OVC003 01/01 A2981 RMK AO2 T00110006


Station Type Date Time Source
KAMW Decoded METAR 2019/02/23 17:06 UTC NOAA

AMES MUNICIPAL AIRPORT, IA, United States (KAMW) 41-59N 93-37W 279M
Feb 23, 2019 - 12:06 PM EST / 2019.02.23 1706 UTC
Wind: from the ENE (070 degrees) at 5 MPH (4 KT):0
Visibility: 3 mile(s):0
Sky conditions: overcast
Weather: mist
Temperature: 34.0 F (1.1 C)
Windchill: 30 F (-1 C):1
Dew Point: 33.1 F (0.6 C)
Relative Humidity: 96%
Pressure (altimeter): 29.81 in. Hg (1009 hPa)
ob: KAMW 231706Z AUTO 07004KT 3SM BR OVC003 01/01 A2981 RMK AO2 T00110006
cycle: 17

Station Type Date Time Source
KAMW TAF UTC NOAA

Error!


Example: see airport list